sensor_id;sensor_type;location;lat;lon;timestamp;P1;durP1;ratioP1;P2;durP2;ratioP2
14768;SDS011;7476;49.404;11.152;2023-01-16T00:01:15;3.63;;;2.00;;
14768;SDS011;7476;49.404;11.152;2023-01-16T00:03:42;2.30;;;2.10;;
14768;SDS011;7476;49.404;11.152;2023-01-16T00:06:09;2.10;;;1.67;;
14768;SDS011;7476;49.404;11.152;2023-01-16T00:08:36;2.90;;;1.77;;
14768;SDS011;7476;49.404;11.152;2023-01-16T00:11:05;2.07;;;1.60;;
14768;SDS011;7476;49.404;11.152;2023-01-16T00:13:32;6.03;;;1.50;;
14768;SDS011;7476;49.404;11.152;2023-01-16T00:15:58;1.63;;;1.50;;
14768;SDS011;7476;49.404;11.152;2023-01-16T00:18:25;1.97;;;1.57;;
14768;SDS011;7476;49.404;11.152;2023-01-16T00:20:52;1.60;;;1.50;;
14768;SDS011;7476;49.404;11.152;2023-01-16T00:23:18;3.20;;;1.70;;
14768;SDS011;7476;49.404;11.152;2023-01-16T00:25:45;4.83;;;1.80;;
14768;SDS011;7476;49.404;11.152;2023-01-16T00:28:13;4.83;;;2.10;;
14768;SDS011;7476;49.404;11.152;2023-01-16T00:30:40;2.00;;;1.53;;
14768;SDS011;7476;49.404;11.152;2023-01-16T00:33:08;3.23;;;1.80;;
14768;SDS011;7476;49.404;11.152;2023-01-16T00:35:35;2.23;;;1.40;;
14768;SDS011;7476;49.404;11.152;2023-01-16T00:38:02;2.17;;;1.50;;
14768;SDS011;7476;49.404;11.152;2023-01-16T00:40:29;3.17;;;1.53;;
14768;SDS011;7476;49.404;11.152;2023-01-16T00:42:56;2.67;;;1.50;;
14768;SDS011;7476;49.404;11.152;2023-01-16T00:45:24;1.57;;;1.47;;
14768;SDS011;7476;49.404;11.152;2023-01-16T00:47:50;1.83;;;1.40;;
14768;SDS011;7476;49.404;11.152;2023-01-16T00:50:17;3.20;;;1.50;;
14768;SDS011;7476;49.404;11.152;2023-01-16T00:52:44;1.67;;;1.53;;
14768;SDS011;7476;49.404;11.152;2023-01-16T00:55:11;2.30;;;1.43;;
14768;SDS011;7476;49.404;11.152;2023-01-16T00:57:37;3.67;;;1.77;;
14768;SDS011;7476;49.404;11.152;2023-01-16T01:00:04;1.83;;;1.30;;
14768;SDS011;7476;49.404;11.152;2023-01-16T01:02:34;1.80;;;1.60;;
14768;SDS011;7476;49.404;11.152;2023-01-16T01:05:00;3.77;;;1.30;;
14768;SDS011;7476;49.404;11.152;2023-01-16T01:07:27;3.40;;;1.50;;
14768;SDS011;7476;49.404;11.152;2023-01-16T01:09:53;3.13;;;1.30;;
14768;SDS011;7476;49.404;11.152;2023-01-16T01:12:20;1.23;;;1.13;;
14768;SDS011;7476;49.404;11.152;2023-01-16T01:14:47;2.07;;;1.37;;
14768;SDS011;7476;49.404;11.152;2023-01-16T01:17:13;4.13;;;1.33;;
14768;SDS011;7476;49.404;11.152;2023-01-16T01:19:41;5.03;;;1.67;;
14768;SDS011;7476;49.404;11.152;2023-01-16T01:22:08;2.40;;;1.40;;
14768;SDS011;7476;49.404;11.152;2023-01-16T01:24:35;1.87;;;1.30;;
14768;SDS011;7476;49.404;11.152;2023-01-16T01:27:01;2.83;;;1.37;;
14768;SDS011;7476;49.404;11.152;2023-01-16T01:29:28;4.87;;;1.83;;
14768;SDS011;7476;49.404;11.152;2023-01-16T01:31:55;3.83;;;1.60;;
14768;SDS011;7476;49.404;11.152;2023-01-16T01:34:21;2.77;;;1.60;;
14768;SDS011;7476;49.404;11.152;2023-01-16T01:36:49;1.30;;;1.20;;
14768;SDS011;7476;49.404;11.152;2023-01-16T01:39:16;2.13;;;1.37;;
14768;SDS011;7476;49.404;11.152;2023-01-16T01:41:43;3.20;;;1.43;;
14768;SDS011;7476;49.404;11.152;2023-01-16T01:47:25;1.43;;;1.33;;
14768;SDS011;7476;49.404;11.152;2023-01-16T01:49:56;3.47;;;1.90;;
14768;SDS011;7476;49.404;11.152;2023-01-16T01:52:29;1.67;;;1.23;;
14768;SDS011;7476;49.404;11.152;2023-01-16T01:54:58;1.53;;;1.40;;
14768;SDS011;7476;49.404;11.152;2023-01-16T01:57:30;2.33;;;1.80;;
14768;SDS011;7476;49.404;11.152;2023-01-16T02:00:01;1.60;;;1.50;;
14768;SDS011;7476;49.404;11.152;2023-01-16T02:02:31;3.07;;;1.60;;
14768;SDS011;7476;49.404;11.152;2023-01-16T02:05:00;3.00;;;1.67;;
14768;SDS011;7476;49.404;11.152;2023-01-16T02:07:31;2.20;;;1.53;;
14768;SDS011;7476;49.404;11.152;2023-01-16T02:10:01;2.00;;;1.60;;
14768;SDS011;7476;49.404;11.152;2023-01-16T02:12:31;3.53;;;1.83;;
14768;SDS011;7476;49.404;11.152;2023-01-16T02:14:59;4.40;;;1.70;;
14768;SDS011;7476;49.404;11.152;2023-01-16T02:17:27;1.30;;;1.20;;
14768;SDS011;7476;49.404;11.152;2023-01-16T02:20:14;1.53;;;1.43;;
14768;SDS011;7476;49.404;11.152;2023-01-16T02:25:51;3.43;;;1.63;;
14768;SDS011;7476;49.404;11.152;2023-01-16T02:31:37;1.50;;;1.40;;
14768;SDS011;7476;49.404;11.152;2023-01-16T02:34:14;1.90;;;1.50;;
14768;SDS011;7476;49.404;11.152;2023-01-16T02:36:55;2.93;;;1.67;;
14768;SDS011;7476;49.404;11.152;2023-01-16T02:39:38;3.30;;;1.60;;
14768;SDS011;7476;49.404;11.152;2023-01-16T02:42:13;1.50;;;1.40;;
14768;SDS011;7476;49.404;11.152;2023-01-16T02:44:51;2.67;;;1.60;;
14768;SDS011;7476;49.404;11.152;2023-01-16T02:47:26;2.97;;;1.30;;
14768;SDS011;7476;49.404;11.152;2023-01-16T02:50:03;1.53;;;1.43;;
14768;SDS011;7476;49.404;11.152;2023-01-16T02:52:38;2.80;;;1.40;;
14768;SDS011;7476;49.404;11.152;2023-01-16T02:55:10;2.77;;;1.60;;
14768;SDS011;7476;49.404;11.152;2023-01-16T02:57:43;1.70;;;1.60;;
14768;SDS011;7476;49.404;11.152;2023-01-16T03:00:14;1.80;;;1.40;;
14768;SDS011;7476;49.404;11.152;2023-01-16T03:02:45;1.40;;;1.30;;
14768;SDS011;7476;49.404;11.152;2023-01-16T03:05:12;4.30;;;1.30;;
14768;SDS011;7476;49.404;11.152;2023-01-16T03:07:44;2.77;;;1.50;;
14768;SDS011;7476;49.404;11.152;2023-01-16T03:10:33;1.73;;;1.37;;
14768;SDS011;7476;49.404;11.152;2023-01-16T03:13:14;3.30;;;1.70;;
14768;SDS011;7476;49.404;11.152;2023-01-16T03:15:50;1.90;;;1.37;;
14768;SDS011;7476;49.404;11.152;2023-01-16T03:18:27;1.50;;;1.40;;
14768;SDS011;7476;49.404;11.152;2023-01-16T03:21:00;3.10;;;1.53;;
14768;SDS011;7476;49.404;11.152;2023-01-16T03:23:34;3.23;;;1.70;;
14768;SDS011;7476;49.404;11.152;2023-01-16T03:26:13;2.47;;;1.30;;
14768;SDS011;7476;49.404;11.152;2023-01-16T03:28:44;1.47;;;1.30;;
14768;SDS011;7476;49.404;11.152;2023-01-16T03:31:18;1.70;;;1.40;;
14768;SDS011;7476;49.404;11.152;2023-01-16T03:33:54;2.77;;;1.43;;
14768;SDS011;7476;49.404;11.152;2023-01-16T03:36:30;1.47;;;1.30;;
14768;SDS011;7476;49.404;11.152;2023-01-16T03:39:00;1.87;;;1.53;;
14768;SDS011;7476;49.404;11.152;2023-01-16T03:41:28;1.87;;;1.50;;
14768;SDS011;7476;49.404;11.152;2023-01-16T03:43:59;2.40;;;1.40;;
14768;SDS011;7476;49.404;11.152;2023-01-16T03:46:30;1.73;;;1.37;;
14768;SDS011;7476;49.404;11.152;2023-01-16T03:49:05;1.40;;;1.30;;
14768;SDS011;7476;49.404;11.152;2023-01-16T03:51:35;1.50;;;1.40;;
14768;SDS011;7476;49.404;11.152;2023-01-16T03:54:07;3.87;;;1.60;;
14768;SDS011;7476;49.404;11.152;2023-01-16T03:56:39;1.50;;;1.40;;
14768;SDS011;7476;49.404;11.152;2023-01-16T03:59:11;4.50;;;1.50;;
14768;SDS011;7476;49.404;11.152;2023-01-16T04:01:39;2.47;;;1.50;;
14768;SDS011;7476;49.404;11.152;2023-01-16T04:04:14;4.60;;;1.50;;
14768;SDS011;7476;49.404;11.152;2023-01-16T04:06:45;4.70;;;1.57;;
14768;SDS011;7476;49.404;11.152;2023-01-16T04:09:18;3.60;;;1.57;;
14768;SDS011;7476;49.404;11.152;2023-01-16T04:11:52;2.73;;;1.40;;
14768;SDS011;7476;49.404;11.152;2023-01-16T04:14:20;2.20;;;1.40;;
14768;SDS011;7476;49.404;11.152;2023-01-16T04:16:49;4.03;;;1.60;;
14768;SDS011;7476;49.404;11.152;2023-01-16T04:19:18;2.63;;;1.60;;
14768;SDS011;7476;49.404;11.152;2023-01-16T04:21:48;3.40;;;1.67;;
14768;SDS011;7476;49.404;11.152;2023-01-16T04:24:15;2.87;;;1.53;;
14768;SDS011;7476;49.404;11.152;2023-01-16T04:26:42;3.47;;;1.50;;
14768;SDS011;7476;49.404;11.152;2023-01-16T04:29:09;1.60;;;1.50;;
14768;SDS011;7476;49.404;11.152;2023-01-16T04:31:36;1.43;;;1.33;;
14768;SDS011;7476;49.404;11.152;2023-01-16T04:34:02;1.70;;;1.60;;
14768;SDS011;7476;49.404;11.152;2023-01-16T04:36:31;2.23;;;1.50;;
14768;SDS011;7476;49.404;11.152;2023-01-16T04:38:57;1.97;;;1.37;;
14768;SDS011;7476;49.404;11.152;2023-01-16T04:41:24;3.67;;;2.00;;
14768;SDS011;7476;49.404;11.152;2023-01-16T04:44:03;2.77;;;1.70;;
14768;SDS011;7476;49.404;11.152;2023-01-16T04:46:32;2.30;;;1.43;;
14768;SDS011;7476;49.404;11.152;2023-01-16T04:48:59;4.10;;;1.33;;
14768;SDS011;7476;49.404;11.152;2023-01-16T04:51:26;1.80;;;1.47;;
14768;SDS011;7476;49.404;11.152;2023-01-16T04:53:55;3.33;;;1.67;;
14768;SDS011;7476;49.404;11.152;2023-01-16T04:56:22;1.83;;;1.50;;
14768;SDS011;7476;49.404;11.152;2023-01-16T04:58:48;3.10;;;1.47;;
14768;SDS011;7476;49.404;11.152;2023-01-16T05:01:16;2.27;;;1.50;;
14768;SDS011;7476;49.404;11.152;2023-01-16T05:03:43;3.33;;;1.60;;
14768;SDS011;7476;49.404;11.152;2023-01-16T05:06:10;2.47;;;1.40;;
14768;SDS011;7476;49.404;11.152;2023-01-16T05:08:37;1.50;;;1.40;;
14768;SDS011;7476;49.404;11.152;2023-01-16T05:11:05;1.80;;;1.40;;
14768;SDS011;7476;49.404;11.152;2023-01-16T05:13:32;3.23;;;1.63;;
14768;SDS011;7476;49.404;11.152;2023-01-16T05:15:58;4.70;;;1.30;;
14768;SDS011;7476;49.404;11.152;2023-01-16T05:18:25;1.40;;;1.30;;
14768;SDS011;7476;49.404;11.152;2023-01-16T05:20:52;3.60;;;1.50;;
14768;SDS011;7476;49.404;11.152;2023-01-16T05:23:19;1.53;;;1.43;;
14768;SDS011;7476;49.404;11.152;2023-01-16T05:25:46;1.40;;;1.30;;
14768;SDS011;7476;49.404;11.152;2023-01-16T05:28:14;2.10;;;1.23;;
14768;SDS011;7476;49.404;11.152;2023-01-16T05:30:41;3.17;;;1.60;;
14768;SDS011;7476;49.404;11.152;2023-01-16T05:33:08;2.63;;;1.60;;
14768;SDS011;7476;49.404;11.152;2023-01-16T05:35:35;2.10;;;1.70;;
14768;SDS011;7476;49.404;11.152;2023-01-16T05:38:01;1.50;;;1.40;;
14768;SDS011;7476;49.404;11.152;2023-01-16T05:40:28;2.37;;;1.43;;
14768;SDS011;7476;49.404;11.152;2023-01-16T05:42:55;3.27;;;1.60;;
14768;SDS011;7476;49.404;11.152;2023-01-16T05:45:24;3.97;;;1.60;;
14768;SDS011;7476;49.404;11.152;2023-01-16T05:47:51;2.13;;;1.70;;
14768;SDS011;7476;49.404;11.152;2023-01-16T05:50:20;4.17;;;1.60;;
14768;SDS011;7476;49.404;11.152;2023-01-16T05:52:47;4.23;;;1.57;;
14768;SDS011;7476;49.404;11.152;2023-01-16T05:55:13;1.70;;;1.40;;
14768;SDS011;7476;49.404;11.152;2023-01-16T05:57:40;1.50;;;1.40;;
14768;SDS011;7476;49.404;11.152;2023-01-16T06:00:07;3.57;;;1.60;;
14768;SDS011;7476;49.404;11.152;2023-01-16T06:02:36;2.60;;;1.37;;
14768;SDS011;7476;49.404;11.152;2023-01-16T06:05:03;3.30;;;1.60;;
14768;SDS011;7476;49.404;11.152;2023-01-16T06:07:31;2.43;;;1.60;;
14768;SDS011;7476;49.404;11.152;2023-01-16T06:09:57;1.63;;;1.50;;
14768;SDS011;7476;49.404;11.152;2023-01-16T06:12:24;2.40;;;1.50;;
14768;SDS011;7476;49.404;11.152;2023-01-16T06:14:51;5.17;;;1.70;;
14768;SDS011;7476;49.404;11.152;2023-01-16T06:17:17;3.07;;;1.50;;
14768;SDS011;7476;49.404;11.152;2023-01-16T06:19:46;3.03;;;1.90;;
14768;SDS011;7476;49.404;11.152;2023-01-16T06:22:13;2.30;;;1.57;;
14768;SDS011;7476;49.404;11.152;2023-01-16T06:24:39;3.67;;;1.50;;
14768;SDS011;7476;49.404;11.152;2023-01-16T06:27:06;3.93;;;1.43;;
14768;SDS011;7476;49.404;11.152;2023-01-16T06:29:33;1.37;;;1.20;;
14768;SDS011;7476;49.404;11.152;2023-01-16T06:32:00;1.93;;;1.43;;
14768;SDS011;7476;49.404;11.152;2023-01-16T06:34:26;3.20;;;1.70;;
14768;SDS011;7476;49.404;11.152;2023-01-16T06:36:54;2.10;;;1.63;;
14768;SDS011;7476;49.404;11.152;2023-01-16T06:39:21;2.67;;;1.40;;
14768;SDS011;7476;49.404;11.152;2023-01-16T06:41:48;2.13;;;1.40;;
14768;SDS011;7476;49.404;11.152;2023-01-16T06:44:15;3.20;;;1.60;;
14768;SDS011;7476;49.404;11.152;2023-01-16T06:46:41;3.50;;;1.70;;
14768;SDS011;7476;49.404;11.152;2023-01-16T06:49:08;2.43;;;1.70;;
14768;SDS011;7476;49.404;11.152;2023-01-16T06:51:35;2.37;;;1.50;;
14768;SDS011;7476;49.404;11.152;2023-01-16T06:54:03;3.37;;;1.60;;
14768;SDS011;7476;49.404;11.152;2023-01-16T06:56:30;3.47;;;1.60;;
14768;SDS011;7476;49.404;11.152;2023-01-16T06:58:57;4.07;;;1.70;;
14768;SDS011;7476;49.404;11.152;2023-01-16T07:01:23;2.23;;;1.70;;
14768;SDS011;7476;49.404;11.152;2023-01-16T07:03:50;5.67;;;1.87;;
14768;SDS011;7476;49.404;11.152;2023-01-16T07:06:17;4.07;;;2.00;;
14768;SDS011;7476;49.404;11.152;2023-01-16T07:08:44;2.93;;;1.80;;
14768;SDS011;7476;49.404;11.152;2023-01-16T07:11:12;2.37;;;1.70;;
14768;SDS011;7476;49.404;11.152;2023-01-16T07:13:38;2.53;;;2.00;;
14768;SDS011;7476;49.404;11.152;2023-01-16T07:16:05;5.73;;;1.87;;
14768;SDS011;7476;49.404;11.152;2023-01-16T07:18:50;3.33;;;1.80;;
14768;SDS011;7476;49.404;11.152;2023-01-16T07:21:34;2.17;;;1.80;;
14768;SDS011;7476;49.404;11.152;2023-01-16T07:24:22;2.13;;;1.70;;
14768;SDS011;7476;49.404;11.152;2023-01-16T07:26:52;4.07;;;1.90;;
14768;SDS011;7476;49.404;11.152;2023-01-16T07:29:22;1.87;;;1.73;;
14768;SDS011;7476;49.404;11.152;2023-01-16T07:31:49;2.27;;;1.80;;
14768;SDS011;7476;49.404;11.152;2023-01-16T07:34:16;2.07;;;1.60;;
14768;SDS011;7476;49.404;11.152;2023-01-16T07:36:43;2.87;;;1.80;;
14768;SDS011;7476;49.404;11.152;2023-01-16T07:39:09;2.77;;;1.60;;
14768;SDS011;7476;49.404;11.152;2023-01-16T07:41:36;2.23;;;1.60;;
14768;SDS011;7476;49.404;11.152;2023-01-16T07:44:04;2.33;;;1.67;;
14768;SDS011;7476;49.404;11.152;2023-01-16T07:46:33;2.07;;;1.63;;
14768;SDS011;7476;49.404;11.152;2023-01-16T07:48:59;2.93;;;1.53;;
14768;SDS011;7476;49.404;11.152;2023-01-16T07:51:26;2.13;;;1.60;;
14768;SDS011;7476;49.404;11.152;2023-01-16T07:53:53;2.67;;;1.90;;
14768;SDS011;7476;49.404;11.152;2023-01-16T07:56:20;3.57;;;1.87;;
14768;SDS011;7476;49.404;11.152;2023-01-16T07:58:46;2.00;;;1.60;;
14768;SDS011;7476;49.404;11.152;2023-01-16T08:01:15;3.33;;;1.70;;
14768;SDS011;7476;49.404;11.152;2023-01-16T08:03:42;3.50;;;1.97;;
14768;SDS011;7476;49.404;11.152;2023-01-16T08:06:09;2.50;;;1.63;;
14768;SDS011;7476;49.404;11.152;2023-01-16T08:08:36;2.07;;;1.60;;
14768;SDS011;7476;49.404;11.152;2023-01-16T08:11:02;2.47;;;1.93;;
14768;SDS011;7476;49.404;11.152;2023-01-16T08:13:50;3.73;;;1.83;;
14768;SDS011;7476;49.404;11.152;2023-01-16T08:16:18;3.20;;;1.57;;
14768;SDS011;7476;49.404;11.152;2023-01-16T08:18:45;3.53;;;1.70;;
14768;SDS011;7476;49.404;11.152;2023-01-16T08:21:13;1.83;;;1.60;;
14768;SDS011;7476;49.404;11.152;2023-01-16T08:23:41;2.00;;;1.53;;
14768;SDS011;7476;49.404;11.152;2023-01-16T08:26:08;1.83;;;1.57;;
14768;SDS011;7476;49.404;11.152;2023-01-16T08:28:35;2.33;;;1.77;;
14768;SDS011;7476;49.404;11.152;2023-01-16T08:31:03;1.90;;;1.50;;
14768;SDS011;7476;49.404;11.152;2023-01-16T08:33:34;3.50;;;1.50;;
14768;SDS011;7476;49.404;11.152;2023-01-16T08:36:01;2.43;;;1.40;;
14768;SDS011;7476;49.404;11.152;2023-01-16T08:38:29;2.30;;;1.50;;
14768;SDS011;7476;49.404;11.152;2023-01-16T08:40:56;1.63;;;1.50;;
14768;SDS011;7476;49.404;11.152;2023-01-16T08:43:23;1.20;;;1.10;;
14768;SDS011;7476;49.404;11.152;2023-01-16T08:46:10;1.83;;;1.40;;
14768;SDS011;7476;49.404;11.152;2023-01-16T08:49:02;2.37;;;1.50;;
14768;SDS011;7476;49.404;11.152;2023-01-16T08:51:47;1.60;;;1.30;;
14768;SDS011;7476;49.404;11.152;2023-01-16T08:54:14;2.83;;;1.30;;
14768;SDS011;7476;49.404;11.152;2023-01-16T08:56:41;2.67;;;1.40;;
14768;SDS011;7476;49.404;11.152;2023-01-16T08:59:08;2.80;;;1.57;;
14768;SDS011;7476;49.404;11.152;2023-01-16T09:01:35;1.53;;;1.30;;
14768;SDS011;7476;49.404;11.152;2023-01-16T09:04:05;3.07;;;1.40;;
14768;SDS011;7476;49.404;11.152;2023-01-16T09:06:31;2.13;;;1.40;;
14768;SDS011;7476;49.404;11.152;2023-01-16T09:09:01;1.63;;;1.27;;
14768;SDS011;7476;49.404;11.152;2023-01-16T09:11:28;2.97;;;1.37;;
14768;SDS011;7476;49.404;11.152;2023-01-16T09:14:12;1.50;;;1.40;;
14768;SDS011;7476;49.404;11.152;2023-01-16T09:16:39;1.70;;;1.30;;
14768;SDS011;7476;49.404;11.152;2023-01-16T09:19:07;1.30;;;1.20;;
14768;SDS011;7476;49.404;11.152;2023-01-16T09:21:33;4.37;;;1.40;;
14768;SDS011;7476;49.404;11.152;2023-01-16T09:24:00;1.50;;;1.20;;
14768;SDS011;7476;49.404;11.152;2023-01-16T09:26:27;2.37;;;1.40;;
14768;SDS011;7476;49.404;11.152;2023-01-16T09:28:55;2.00;;;1.47;;
14768;SDS011;7476;49.404;11.152;2023-01-16T09:31:22;1.73;;;1.30;;
14768;SDS011;7476;49.404;11.152;2023-01-16T09:33:49;1.43;;;1.30;;
14768;SDS011;7476;49.404;11.152;2023-01-16T09:36:18;2.17;;;1.20;;
14768;SDS011;7476;49.404;11.152;2023-01-16T09:38:45;1.30;;;1.20;;
14768;SDS011;7476;49.404;11.152;2023-01-16T09:41:13;1.50;;;1.30;;
14768;SDS011;7476;49.404;11.152;2023-01-16T09:44:03;1.17;;;1.10;;
14768;SDS011;7476;49.404;11.152;2023-01-16T09:46:33;5.23;;;1.20;;
14768;SDS011;7476;49.404;11.152;2023-01-16T09:49:03;2.67;;;1.13;;
14768;SDS011;7476;49.404;11.152;2023-01-16T09:51:38;1.20;;;1.10;;
14768;SDS011;7476;49.404;11.152;2023-01-16T09:54:28;1.20;;;1.10;;
14768;SDS011;7476;49.404;11.152;2023-01-16T09:57:18;1.83;;;1.10;;
14768;SDS011;7476;49.404;11.152;2023-01-16T10:00:03;2.50;;;1.10;;
14768;SDS011;7476;49.404;11.152;2023-01-16T10:02:34;1.30;;;1.10;;
14768;SDS011;7476;49.404;11.152;2023-01-16T10:05:03;1.80;;;1.20;;
14768;SDS011;7476;49.404;11.152;2023-01-16T10:07:36;1.47;;;1.10;;
14768;SDS011;7476;49.404;11.152;2023-01-16T10:10:18;1.60;;;1.27;;
14768;SDS011;7476;49.404;11.152;2023-01-16T10:13:04;1.50;;;1.20;;
14768;SDS011;7476;49.404;11.152;2023-01-16T10:15:43;2.23;;;1.20;;
14768;SDS011;7476;49.404;11.152;2023-01-16T10:18:20;1.20;;;1.10;;
14768;SDS011;7476;49.404;11.152;2023-01-16T10:20:54;1.43;;;1.33;;
14768;SDS011;7476;49.404;11.152;2023-01-16T10:23:43;1.10;;;1.00;;
14768;SDS011;7476;49.404;11.152;2023-01-16T10:26:17;1.80;;;1.40;;
14768;SDS011;7476;49.404;11.152;2023-01-16T10:28:52;1.73;;;1.20;;
14768;SDS011;7476;49.404;11.152;2023-01-16T10:31:24;1.60;;;1.10;;
14768;SDS011;7476;49.404;11.152;2023-01-16T10:33:55;1.87;;;1.10;;
14768;SDS011;7476;49.404;11.152;2023-01-16T10:36:27;1.43;;;1.30;;
14768;SDS011;7476;49.404;11.152;2023-01-16T10:38:59;1.73;;;1.00;;
14768;SDS011;7476;49.404;11.152;2023-01-16T10:41:27;1.20;;;1.10;;
14768;SDS011;7476;49.404;11.152;2023-01-16T10:44:23;1.43;;;1.13;;
14768;SDS011;7476;49.404;11.152;2023-01-16T10:47:14;1.30;;;1.20;;
14768;SDS011;7476;49.404;11.152;2023-01-16T10:50:00;1.83;;;1.40;;
14768;SDS011;7476;49.404;11.152;2023-01-16T10:52:27;1.20;;;1.10;;
14768;SDS011;7476;49.404;11.152;2023-01-16T10:54:56;1.97;;;1.40;;
14768;SDS011;7476;49.404;11.152;2023-01-16T10:57:25;1.53;;;1.20;;
14768;SDS011;7476;49.404;11.152;2023-01-16T10:59:57;2.37;;;1.60;;
14768;SDS011;7476;49.404;11.152;2023-01-16T11:02:29;2.73;;;1.20;;
14768;SDS011;7476;49.404;11.152;2023-01-16T11:04:58;2.53;;;1.40;;
14768;SDS011;7476;49.404;11.152;2023-01-16T11:07:26;1.40;;;1.30;;
14768;SDS011;7476;49.404;11.152;2023-01-16T11:09:56;3.10;;;1.40;;
14768;SDS011;7476;49.404;11.152;2023-01-16T11:12:26;2.00;;;1.30;;
14768;SDS011;7476;49.404;11.152;2023-01-16T11:15:14;1.70;;;1.60;;
14768;SDS011;7476;49.404;11.152;2023-01-16T11:18:00;1.63;;;1.27;;
14768;SDS011;7476;49.404;11.152;2023-01-16T11:20:45;1.33;;;1.10;;
14768;SDS011;7476;49.404;11.152;2023-01-16T11:23:15;1.80;;;1.17;;
14768;SDS011;7476;49.404;11.152;2023-01-16T11:25:46;2.47;;;1.40;;
14768;SDS011;7476;49.404;11.152;2023-01-16T11:28:17;2.90;;;1.20;;
14768;SDS011;7476;49.404;11.152;2023-01-16T11:30:46;2.93;;;1.30;;
14768;SDS011;7476;49.404;11.152;2023-01-16T11:33:15;1.63;;;1.30;;
14768;SDS011;7476;49.404;11.152;2023-01-16T11:35:47;2.00;;;1.30;;
14768;SDS011;7476;49.404;11.152;2023-01-16T11:38:18;3.30;;;1.10;;
14768;SDS011;7476;49.404;11.152;2023-01-16T11:40:48;1.43;;;1.33;;
14768;SDS011;7476;49.404;11.152;2023-01-16T11:43:18;1.53;;;1.37;;
14768;SDS011;7476;49.404;11.152;2023-01-16T11:46:07;2.40;;;1.30;;
14768;SDS011;7476;49.404;11.152;2023-01-16T11:48:58;1.97;;;1.20;;
14768;SDS011;7476;49.404;11.152;2023-01-16T11:51:27;3.20;;;1.20;;
14768;SDS011;7476;49.404;11.152;2023-01-16T11:53:55;2.10;;;1.53;;
14768;SDS011;7476;49.404;11.152;2023-01-16T11:56:34;3.57;;;1.20;;
14768;SDS011;7476;49.404;11.152;2023-01-16T11:59:13;1.40;;;1.00;;
14768;SDS011;7476;49.404;11.152;2023-01-16T12:01:54;1.67;;;1.20;;
14768;SDS011;7476;49.404;11.152;2023-01-16T12:04:45;1.50;;;1.20;;
14768;SDS011;7476;49.404;11.152;2023-01-16T12:07:30;1.77;;;1.20;;
14768;SDS011;7476;49.404;11.152;2023-01-16T12:10:10;1.87;;;1.10;;
14768;SDS011;7476;49.404;11.152;2023-01-16T12:12:49;2.33;;;1.30;;
14768;SDS011;7476;49.404;11.152;2023-01-16T12:15:42;1.37;;;1.27;;
14768;SDS011;7476;49.404;11.152;2023-01-16T12:18:17;1.30;;;1.20;;
14768;SDS011;7476;49.404;11.152;2023-01-16T12:20:52;1.33;;;1.20;;
14768;SDS011;7476;49.404;11.152;2023-01-16T12:23:38;1.00;;;0.90;;
14768;SDS011;7476;49.404;11.152;2023-01-16T12:26:14;1.77;;;1.30;;
14768;SDS011;7476;49.404;11.152;2023-01-16T12:28:50;2.57;;;1.17;;
14768;SDS011;7476;49.404;11.152;2023-01-16T12:31:36;2.37;;;1.20;;
14768;SDS011;7476;49.404;11.152;2023-01-16T12:43:13;3.07;;;1.23;;
14768;SDS011;7476;49.404;11.152;2023-01-16T12:45:50;2.30;;;1.00;;
14768;SDS011;7476;49.404;11.152;2023-01-16T12:51:26;2.63;;;1.27;;
14768;SDS011;7476;49.404;11.152;2023-01-16T12:57:06;1.20;;;1.10;;
14768;SDS011;7476;49.404;11.152;2023-01-16T12:59:44;1.87;;;1.00;;
14768;SDS011;7476;49.404;11.152;2023-01-16T13:02:18;1.30;;;1.10;;
14768;SDS011;7476;49.404;11.152;2023-01-16T13:04:51;3.00;;;1.40;;
14768;SDS011;7476;49.404;11.152;2023-01-16T13:07:23;1.47;;;1.00;;
14768;SDS011;7476;49.404;11.152;2023-01-16T13:09:52;2.53;;;1.10;;
14768;SDS011;7476;49.404;11.152;2023-01-16T13:12:46;1.57;;;1.30;;
14768;SDS011;7476;49.404;11.152;2023-01-16T13:15:33;1.90;;;1.30;;
14768;SDS011;7476;49.404;11.152;2023-01-16T13:18:04;1.20;;;1.10;;
14768;SDS011;7476;49.404;11.152;2023-01-16T13:20:35;2.03;;;1.33;;
14768;SDS011;7476;49.404;11.152;2023-01-16T13:23:05;1.50;;;1.30;;
14768;SDS011;7476;49.404;11.152;2023-01-16T13:25:39;3.13;;;1.77;;
14768;SDS011;7476;49.404;11.152;2023-01-16T13:28:12;2.50;;;1.30;;
14768;SDS011;7476;49.404;11.152;2023-01-16T13:30:44;1.77;;;1.20;;
14768;SDS011;7476;49.404;11.152;2023-01-16T13:33:15;2.03;;;1.20;;
14768;SDS011;7476;49.404;11.152;2023-01-16T13:35:46;2.13;;;1.10;;
14768;SDS011;7476;49.404;11.152;2023-01-16T13:38:32;3.40;;;1.40;;
14768;SDS011;7476;49.404;11.152;2023-01-16T13:41:09;1.87;;;1.20;;
14768;SDS011;7476;49.404;11.152;2023-01-16T13:43:43;1.30;;;1.20;;
14768;SDS011;7476;49.404;11.152;2023-01-16T13:46:32;2.33;;;1.20;;
14768;SDS011;7476;49.404;11.152;2023-01-16T13:49:01;1.60;;;1.20;;
14768;SDS011;7476;49.404;11.152;2023-01-16T13:51:30;2.17;;;1.27;;
14768;SDS011;7476;49.404;11.152;2023-01-16T13:54:07;1.90;;;1.13;;
14768;SDS011;7476;49.404;11.152;2023-01-16T13:56:40;1.83;;;1.13;;
14768;SDS011;7476;49.404;11.152;2023-01-16T13:59:24;2.70;;;1.20;;
14768;SDS011;7476;49.404;11.152;2023-01-16T14:01:57;2.03;;;1.10;;
14768;SDS011;7476;49.404;11.152;2023-01-16T14:04:26;1.40;;;1.20;;
14768;SDS011;7476;49.404;11.152;2023-01-16T14:06:58;3.50;;;1.40;;
14768;SDS011;7476;49.404;11.152;2023-01-16T14:12:40;1.40;;;1.10;;
14768;SDS011;7476;49.404;11.152;2023-01-16T14:15:15;1.93;;;1.27;;
14768;SDS011;7476;49.404;11.152;2023-01-16T14:18:13;3.93;;;1.40;;
14768;SDS011;7476;49.404;11.152;2023-01-16T14:20:44;4.20;;;1.60;;
14768;SDS011;7476;49.404;11.152;2023-01-16T14:23:22;2.13;;;1.30;;
14768;SDS011;7476;49.404;11.152;2023-01-16T14:26:08;3.53;;;1.37;;
14768;SDS011;7476;49.404;11.152;2023-01-16T14:28:41;1.73;;;1.43;;
14768;SDS011;7476;49.404;11.152;2023-01-16T14:31:18;1.47;;;1.30;;
14768;SDS011;7476;49.404;11.152;2023-01-16T14:33:48;1.97;;;1.40;;
14768;SDS011;7476;49.404;11.152;2023-01-16T14:36:17;1.63;;;1.20;;
14768;SDS011;7476;49.404;11.152;2023-01-16T14:38:47;1.40;;;1.30;;
14768;SDS011;7476;49.404;11.152;2023-01-16T14:41:17;2.03;;;1.33;;
14768;SDS011;7476;49.404;11.152;2023-01-16T14:44:14;2.13;;;1.13;;
14768;SDS011;7476;49.404;11.152;2023-01-16T14:47:22;1.33;;;1.17;;
14768;SDS011;7476;49.404;11.152;2023-01-16T14:50:09;2.80;;;1.27;;
14768;SDS011;7476;49.404;11.152;2023-01-16T14:53:02;2.83;;;1.20;;
14768;SDS011;7476;49.404;11.152;2023-01-16T14:55:57;2.10;;;1.30;;
14768;SDS011;7476;49.404;11.152;2023-01-16T14:58:30;1.87;;;1.30;;
14768;SDS011;7476;49.404;11.152;2023-01-16T15:01:00;1.97;;;1.30;;
14768;SDS011;7476;49.404;11.152;2023-01-16T15:03:54;1.70;;;1.60;;
14768;SDS011;7476;49.404;11.152;2023-01-16T15:06:21;1.20;;;1.10;;
14768;SDS011;7476;49.404;11.152;2023-01-16T15:08:49;1.67;;;1.20;;
14768;SDS011;7476;49.404;11.152;2023-01-16T15:11:20;1.80;;;1.30;;
14768;SDS011;7476;49.404;11.152;2023-01-16T15:17:03;1.30;;;1.20;;
14768;SDS011;7476;49.404;11.152;2023-01-16T15:19:59;1.80;;;1.30;;
14768;SDS011;7476;49.404;11.152;2023-01-16T15:22:50;1.47;;;1.37;;
14768;SDS011;7476;49.404;11.152;2023-01-16T15:25:32;1.20;;;1.10;;
14768;SDS011;7476;49.404;11.152;2023-01-16T15:28:20;2.10;;;1.37;;
14768;SDS011;7476;49.404;11.152;2023-01-16T15:30:53;2.10;;;1.20;;
14768;SDS011;7476;49.404;11.152;2023-01-16T15:33:25;1.50;;;1.40;;
14768;SDS011;7476;49.404;11.152;2023-01-16T15:36:16;2.27;;;1.60;;
14768;SDS011;7476;49.404;11.152;2023-01-16T15:38:46;3.73;;;1.80;;
14768;SDS011;7476;49.404;11.152;2023-01-16T15:41:18;3.70;;;1.87;;
14768;SDS011;7476;49.404;11.152;2023-01-16T15:44:11;2.37;;;1.70;;
14768;SDS011;7476;49.404;11.152;2023-01-16T15:47:01;2.57;;;1.87;;
14768;SDS011;7476;49.404;11.152;2023-01-16T15:49:45;5.00;;;2.20;;